createdAt,value
2022-08-05T00:01:36.358Z,59.37
2022-08-05T00:04:17.072Z,59.49
2022-08-05T00:06:47.116Z,59.59
2022-08-05T00:09:16.016Z,59.62
2022-08-05T00:11:49.244Z,59.65
2022-08-05T00:14:26.459Z,59.57
2022-08-05T00:16:56.766Z,59.60
2022-08-05T00:19:25.048Z,59.72
2022-08-05T00:22:01.761Z,60.67
2022-08-05T00:24:30.661Z,61.13
2022-08-05T00:26:59.961Z,61.11
2022-08-05T00:29:37.650Z,61.25
2022-08-05T00:32:13.127Z,61.55
2022-08-05T00:35:04.726Z,61.93
2022-08-05T00:37:50.617Z,62.35
2022-08-05T00:40:28.168Z,62.07
2022-08-05T00:43:01.426Z,62.14
2022-08-05T00:45:42.776Z,62.74
2022-08-05T00:48:14.483Z,62.67
2022-08-05T00:50:44.270Z,62.91
2022-08-05T00:53:45.154Z,63.21
2022-08-05T00:56:03.308Z,63.25
2022-08-05T00:58:31.002Z,63.48
2022-08-05T01:00:58.873Z,63.74
2022-08-05T01:03:30.875Z,63.99
2022-08-05T01:06:01.258Z,64.17
2022-08-05T01:08:43.026Z,64.38
2022-08-05T01:11:36.726Z,64.61
2022-08-05T01:14:27.891Z,64.95
2022-08-05T01:16:56.146Z,65.07
2022-08-05T01:19:30.399Z,64.62
2022-08-05T01:22:24.274Z,64.74
2022-08-05T01:25:39.625Z,64.98
2022-08-05T01:28:29.069Z,64.79
2022-08-05T01:31:22.606Z,64.90
2022-08-05T01:33:59.911Z,65.13
2022-08-05T01:36:32.298Z,65.23
2022-08-05T01:39:02.094Z,65.16
2022-08-05T01:41:35.726Z,65.56
2022-08-05T01:44:10.016Z,66.47
2022-08-05T01:46:42.191Z,66.61
2022-08-05T01:49:25.417Z,66.75
2022-08-05T01:52:18.031Z,68.57
2022-08-05T01:54:53.670Z,66.96
2022-08-05T01:58:10.807Z,67.18
2022-08-05T02:00:16.192Z,69.40
2022-08-05T02:02:55.443Z,69.47
2022-08-05T02:05:31.006Z,69.72
2022-08-05T02:08:02.354Z,68.83
2022-08-05T02:10:35.815Z,69.09
2022-08-05T02:13:17.652Z,68.13
2022-08-05T02:15:51.398Z,68.45
2022-08-05T02:18:31.727Z,67.98
2022-08-05T02:21:14.784Z,67.62
2022-08-05T02:23:47.481Z,66.99
2022-08-05T02:26:23.388Z,66.60
2022-08-05T02:28:58.365Z,66.24
2022-08-05T02:31:34.940Z,65.43
2022-08-05T02:34:07.002Z,65.33
2022-08-05T02:36:40.415Z,63.77
2022-08-05T02:39:10.313Z,63.24
2022-08-05T02:41:57.462Z,63.26
2022-08-05T02:44:29.640Z,61.84
2022-08-05T02:47:00.741Z,62.41
2022-08-05T02:49:36.547Z,62.57
2022-08-05T02:52:11.520Z,62.82
2022-08-05T02:54:51.193Z,62.71
2022-08-05T02:58:12.050Z,63.01
2022-08-05T03:00:12.974Z,62.93
2022-08-05T03:02:43.040Z,62.13
2022-08-05T03:05:13.439Z,61.41
2022-08-05T03:08:04.579Z,60.30
2022-08-05T03:10:30.443Z,60.27
2022-08-05T03:15:24.583Z,60.18
2022-08-05T03:17:57.666Z,59.39
2022-08-05T03:20:26.055Z,59.36
2022-08-05T03:22:57.645Z,58.81
2022-08-05T03:25:32.377Z,58.55
2022-08-05T03:28:03.630Z,57.00
2022-08-05T03:30:34.457Z,57.04
2022-08-05T03:33:07.467Z,56.19
2022-08-05T03:35:40.707Z,56.39
2022-08-05T03:38:09.344Z,56.55
2022-08-05T03:40:41.459Z,56.91
2022-08-05T03:43:58.603Z,56.85
2022-08-05T03:46:01.787Z,57.15
2022-08-05T03:48:30.420Z,57.14
2022-08-05T03:52:39.423Z,56.33
2022-08-05T03:56:00.671Z,55.69
2022-08-05T03:57:42.420Z,54.73
2022-08-05T04:00:15.843Z,55.17
2022-08-05T04:02:58.611Z,55.97
2022-08-05T04:05:33.711Z,56.19
2022-08-05T04:08:14.648Z,55.72
2022-08-05T04:10:57.846Z,55.02
2022-08-05T04:13:27.842Z,55.01
2022-08-05T04:16:15.226Z,54.87
2022-08-05T04:18:53.942Z,55.40
2022-08-05T04:22:05.283Z,55.89
2022-08-05T04:24:18.809Z,55.41
2022-08-05T04:26:47.786Z,55.55
2022-08-05T04:29:15.474Z,55.11
2022-08-05T04:31:43.159Z,55.09
2022-08-05T04:34:31.756Z,55.21
2022-08-05T04:36:58.924Z,55.28
2022-08-05T04:39:27.614Z,55.43
2022-08-05T04:41:55.627Z,55.66
2022-08-05T04:44:30.180Z,55.87
2022-08-05T04:47:09.293Z,56.04
2022-08-05T04:50:01.022Z,56.05
2022-08-05T04:52:27.644Z,56.20
2022-08-05T04:54:57.084Z,56.01
2022-08-05T04:57:29.109Z,55.83
2022-08-05T04:59:58.972Z,55.66
2022-08-05T05:02:36.136Z,55.96
2022-08-05T05:05:26.577Z,56.06
2022-08-05T05:08:01.196Z,56.16
2022-08-05T05:10:33.824Z,56.27
2022-08-05T05:13:04.242Z,56.71
2022-08-05T05:15:57.634Z,57.20
2022-08-05T05:18:33.050Z,57.42
2022-08-05T05:21:02.350Z,57.52
2022-08-05T05:23:39.367Z,57.33
2022-08-05T05:26:18.920Z,56.92
2022-08-05T05:28:46.605Z,56.94
2022-08-05T05:31:14.857Z,56.96
2022-08-05T05:33:58.723Z,57.08
2022-08-05T05:36:29.834Z,57.41
2022-08-05T05:38:58.339Z,57.92
2022-08-05T05:41:26.719Z,58.46
2022-08-05T05:44:36.045Z,58.48
2022-08-05T05:46:56.442Z,58.39
2022-08-05T05:49:25.868Z,58.43
2022-08-05T05:51:54.272Z,58.57
2022-08-05T05:54:22.713Z,59.03
2022-08-05T05:57:13.521Z,59.72
2022-08-05T05:59:41.702Z,60.06
2022-08-05T06:02:11.007Z,60.29
2022-08-05T06:04:38.743Z,60.25
2022-08-05T06:07:06.441Z,61.11
2022-08-05T06:09:59.884Z,61.32
2022-08-05T06:12:21.752Z,61.53
2022-08-05T06:14:54.899Z,60.95
2022-08-05T06:17:24.744Z,60.70
2022-08-05T06:19:59.926Z,60.81
2022-08-05T06:22:33.776Z,60.64
2022-08-05T06:25:59.173Z,61.19
2022-08-05T06:28:10.719Z,61.07
2022-08-05T06:30:38.266Z,60.57
2022-08-05T06:33:09.742Z,60.50
2022-08-05T06:36:05.692Z,60.22
2022-08-05T06:38:35.826Z,59.51
2022-08-05T06:41:07.852Z,59.27
2022-08-05T06:43:57.605Z,59.01
2022-08-05T06:46:30.104Z,58.82
2022-08-05T06:49:00.778Z,58.65
2022-08-05T06:51:30.746Z,58.41
2022-08-05T06:54:00.515Z,58.15
2022-08-05T06:56:34.420Z,57.95
2022-08-05T06:59:03.384Z,57.74
2022-08-05T07:01:32.706Z,57.60
2022-08-05T07:04:03.127Z,57.41
2022-08-05T07:06:31.769Z,57.50
2022-08-05T07:09:04.094Z,57.79
2022-08-05T07:11:32.607Z,58.07
2022-08-05T07:14:29.293Z,57.58
2022-08-05T07:18:07.104Z,57.11
2022-08-05T07:22:41.968Z,55.68
2022-08-05T07:25:22.416Z,54.47
2022-08-05T07:28:05.996Z,54.45
2022-08-05T07:30:39.016Z,53.68
2022-08-05T07:33:16.850Z,54.27
2022-08-05T07:36:01.749Z,54.58
2022-08-05T07:38:42.562Z,54.23
2022-08-05T07:42:13.474Z,53.66
2022-08-05T07:44:14.027Z,53.43
2022-08-05T07:46:45.947Z,52.73
2022-08-05T07:49:16.563Z,52.59
2022-08-05T07:51:53.199Z,52.78
2022-08-05T07:54:31.328Z,52.50
2022-08-05T07:57:17.627Z,51.36
2022-08-05T07:59:50.938Z,51.35
2022-08-05T08:02:18.897Z,49.37
2022-08-05T08:04:48.487Z,48.98
2022-08-05T08:07:17.919Z,48.95
2022-08-05T08:09:46.813Z,48.71
2022-08-05T08:12:35.457Z,48.32
2022-08-05T08:15:05.213Z,48.18
2022-08-05T08:17:46.261Z,47.84
2022-08-05T08:20:43.615Z,47.23
2022-08-05T08:23:06.054Z,47.11
2022-08-05T08:25:59.831Z,47.01
2022-08-05T08:28:35.724Z,46.66
2022-08-05T08:31:05.275Z,46.59
2022-08-05T08:33:35.886Z,46.58
2022-08-05T08:36:37.490Z,46.54
2022-08-05T08:38:57.079Z,46.74
2022-08-05T08:41:51.873Z,46.51
2022-08-05T08:45:17.947Z,46.34
2022-08-05T08:47:47.577Z,46.16
2022-08-05T08:50:05.667Z,46.38
2022-08-05T08:52:53.733Z,46.19
2022-08-05T08:55:32.181Z,46.39
2022-08-05T08:58:12.923Z,46.72
2022-08-05T09:00:42.497Z,46.47
2022-08-05T09:03:12.410Z,46.29
2022-08-05T09:06:08.826Z,46.12
2022-08-05T09:08:31.983Z,45.91
2022-08-05T09:10:59.973Z,45.69
2022-08-05T09:13:31.765Z,45.28
2022-08-05T09:16:16.884Z,45.24
2022-08-05T09:18:45.554Z,45.04
2022-08-05T09:21:20.818Z,45.04
2022-08-05T09:24:02.741Z,45.07
2022-08-05T09:26:30.451Z,44.97
2022-08-05T09:29:08.820Z,44.56
2022-08-05T09:32:40.693Z,44.31
2022-08-05T09:34:26.020Z,43.89
2022-08-05T09:36:59.075Z,44.29
2022-08-05T09:39:45.086Z,44.30
2022-08-05T09:42:24.390Z,44.21
2022-08-05T09:45:03.178Z,44.19
2022-08-05T09:47:48.086Z,44.29
2022-08-05T09:50:37.398Z,44.40
2022-08-05T09:53:06.741Z,44.48
2022-08-05T09:55:56.289Z,45.13
2022-08-05T09:58:25.802Z,45.67
2022-08-05T10:01:14.995Z,45.79
2022-08-05T10:04:04.234Z,46.32
2022-08-05T10:06:41.562Z,45.99
2022-08-05T10:09:28.262Z,46.09
2022-08-05T10:12:18.811Z,46.12
2022-08-05T10:15:20.148Z,46.01
2022-08-05T10:18:08.641Z,46.40
2022-08-05T10:20:51.794Z,46.41
2022-08-05T10:23:55.747Z,46.16
2022-08-05T10:26:24.329Z,46.46
2022-08-05T10:29:00.890Z,46.35
2022-08-05T10:32:52.276Z,46.02
2022-08-05T10:34:16.954Z,45.67
2022-08-05T10:36:45.371Z,45.57
2022-08-05T10:39:25.139Z,45.35
2022-08-05T10:42:22.847Z,45.02
2022-08-05T10:45:09.793Z,44.66
2022-08-05T10:47:56.405Z,44.55
2022-08-05T10:50:59.274Z,44.74
2022-08-05T10:53:45.131Z,44.67
2022-08-05T10:56:25.516Z,44.90
2022-08-05T10:58:56.583Z,44.95
2022-08-05T11:02:04.669Z,44.76
2022-08-05T11:04:36.654Z,45.09
2022-08-05T11:07:07.916Z,45.06
2022-08-05T11:10:09.549Z,45.03
2022-08-05T11:12:38.182Z,44.80
2022-08-05T11:15:21.040Z,44.70
2022-08-05T11:17:58.950Z,44.59
2022-08-05T11:20:34.418Z,44.52
2022-08-05T11:23:33.538Z,44.58
2022-08-05T11:26:29.013Z,44.32
2022-08-05T11:29:12.756Z,44.47
2022-08-05T11:31:57.742Z,44.57
2022-08-05T11:34:50.901Z,44.60
2022-08-05T11:38:36.741Z,44.44
2022-08-05T11:41:01.340Z,44.05
2022-08-05T11:44:21.649Z,43.50
2022-08-05T11:47:10.974Z,43.59
2022-08-05T11:49:43.274Z,43.34
2022-08-05T11:52:29.345Z,43.24
2022-08-05T11:54:59.479Z,42.98
2022-08-05T11:58:07.922Z,42.96
2022-08-05T12:00:31.547Z,43.06
2022-08-05T12:02:59.450Z,42.70
2022-08-05T12:05:32.247Z,42.52
2022-08-05T12:08:11.539Z,42.53
2022-08-05T12:10:46.560Z,42.62
2022-08-05T12:13:28.172Z,42.70
2022-08-05T12:16:15.084Z,42.70
2022-08-05T12:18:49.523Z,43.01
2022-08-05T12:21:23.530Z,43.07
2022-08-05T12:24:05.163Z,43.15
2022-08-05T12:26:35.272Z,43.16
2022-08-05T12:29:09.770Z,43.07
2022-08-05T12:31:54.370Z,42.86
2022-08-05T12:34:35.745Z,42.77
2022-08-05T12:37:16.956Z,42.11
2022-08-05T12:39:51.564Z,42.39
2022-08-05T12:42:21.878Z,42.34
2022-08-05T12:44:53.157Z,42.10
2022-08-05T12:47:31.656Z,42.09
2022-08-05T12:50:03.354Z,41.95
2022-08-05T12:52:41.894Z,41.94
2022-08-05T12:55:28.572Z,41.42
2022-08-05T12:58:50.149Z,41.40
2022-08-05T13:02:04.061Z,41.64
2022-08-05T13:03:43.026Z,41.72
2022-08-05T13:06:17.962Z,41.61
2022-08-05T13:08:51.942Z,41.64
2022-08-05T13:11:59.935Z,41.34
2022-08-05T13:14:25.005Z,41.24
2022-08-05T13:17:10.328Z,41.02
2022-08-05T13:19:52.031Z,40.99
2022-08-05T13:22:28.446Z,40.90
2022-08-05T13:25:05.516Z,40.96
2022-08-05T13:27:39.263Z,40.90
2022-08-05T13:30:36.102Z,40.58
2022-08-05T13:33:03.898Z,40.47
2022-08-05T13:35:47.103Z,40.53
2022-08-05T13:38:30.669Z,40.21
2022-08-05T13:41:02.119Z,39.98
2022-08-05T13:43:43.305Z,40.04
2022-08-05T13:46:14.319Z,40.32
2022-08-05T13:48:57.308Z,39.96
2022-08-05T13:51:36.593Z,39.67
2022-08-05T13:54:15.066Z,39.97
2022-08-05T13:56:45.252Z,39.83
2022-08-05T13:59:27.073Z,39.63
2022-08-05T14:02:00.512Z,39.24
2022-08-05T14:05:00.694Z,39.17
2022-08-05T14:08:00.725Z,39.12
2022-08-05T14:10:30.780Z,39.11
2022-08-05T14:12:59.740Z,39.10
2022-08-05T14:16:04.465Z,38.76
2022-08-05T14:18:18.313Z,38.36
2022-08-05T14:20:48.675Z,37.87
2022-08-05T14:23:25.524Z,37.83
2022-08-05T14:25:59.047Z,38.00
2022-08-05T14:28:30.947Z,38.16
2022-08-05T14:31:01.917Z,38.15
2022-08-05T14:33:56.669Z,37.75
2022-08-05T14:36:21.422Z,37.85
2022-08-05T14:38:50.272Z,38.38
2022-08-05T14:41:18.861Z,38.38
2022-08-05T14:44:01.594Z,38.23
2022-08-05T14:46:35.522Z,37.86
2022-08-05T14:49:07.323Z,37.55
2022-08-05T14:51:42.954Z,36.96
2022-08-05T14:54:30.140Z,36.80
2022-08-05T14:57:00.235Z,37.08
2022-08-05T14:59:35.822Z,36.29
2022-08-05T15:02:15.831Z,36.13
2022-08-05T15:04:44.981Z,36.33
2022-08-05T15:08:05.698Z,36.69
2022-08-05T15:10:03.489Z,36.68
2022-08-05T15:12:51.316Z,36.60
2022-08-05T15:15:55.866Z,36.37
2022-08-05T15:18:07.081Z,36.07
2022-08-05T15:20:34.966Z,36.16
2022-08-05T15:23:08.242Z,36.32
2022-08-05T15:25:51.046Z,36.47
2022-08-05T15:28:22.259Z,36.97
2022-08-05T15:30:55.201Z,37.35
2022-08-05T15:34:19.555Z,37.43
2022-08-05T15:36:17.400Z,37.21
2022-08-05T15:40:58.832Z,37.02
2022-08-05T15:41:56.268Z,36.97
2022-08-05T15:44:27.633Z,37.01
2022-08-05T15:46:55.911Z,37.16
2022-08-05T15:49:41.879Z,37.20
2022-08-05T15:52:16.257Z,37.09
2022-08-05T15:54:57.500Z,37.12
2022-08-05T15:57:27.825Z,37.19
2022-08-05T16:00:02.683Z,36.88
2022-08-05T16:02:30.648Z,36.55
2022-08-05T16:04:59.130Z,36.45
2022-08-05T16:07:29.486Z,36.20
2022-08-05T16:09:57.527Z,36.30
2022-08-05T16:12:25.565Z,36.59
2022-08-05T16:14:53.391Z,36.82
2022-08-05T16:17:21.137Z,36.45
2022-08-05T16:20:05.748Z,35.95
2022-08-05T16:22:36.736Z,35.83
2022-08-05T16:25:09.826Z,35.77
2022-08-05T16:28:01.063Z,35.57
2022-08-05T16:30:28.751Z,35.31
2022-08-05T16:32:56.989Z,35.33
2022-08-05T16:35:28.322Z,35.37
2022-08-05T16:38:02.635Z,35.37
2022-08-05T16:40:51.615Z,35.43
2022-08-05T16:43:24.031Z,35.51
2022-08-05T16:46:06.451Z,35.61
2022-08-05T16:48:37.456Z,35.37
2022-08-05T16:51:09.098Z,35.36
2022-08-05T16:54:05.394Z,35.27
2022-08-05T16:56:31.624Z,35.25
2022-08-05T16:59:01.847Z,35.47
2022-08-05T17:01:54.221Z,35.44
2022-08-05T17:04:28.316Z,35.57
2022-08-05T17:07:11.083Z,35.83
2022-08-05T17:09:57.459Z,36.81
2022-08-05T17:12:51.384Z,38.18
2022-08-05T17:15:15.656Z,39.39
2022-08-05T17:17:54.756Z,40.15
2022-08-05T17:20:23.155Z,40.47
2022-08-05T17:22:55.413Z,40.72
2022-08-05T17:25:39.397Z,41.22
2022-08-05T17:28:09.248Z,41.49
2022-08-05T17:30:50.715Z,40.10
2022-08-05T17:33:20.929Z,39.38
2022-08-05T17:36:07.717Z,39.11
2022-08-05T17:38:36.603Z,39.03
2022-08-05T17:41:04.335Z,39.17
2022-08-05T17:43:47.159Z,39.52
2022-08-05T17:46:21.400Z,39.97
2022-08-05T17:48:49.342Z,40.58
2022-08-05T17:51:21.787Z,41.10
2022-08-05T17:53:54.419Z,41.62
2022-08-05T17:56:23.021Z,42.09
2022-08-05T17:58:56.024Z,42.20
2022-08-05T18:01:24.203Z,42.38
2022-08-05T18:04:04.392Z,42.64
2022-08-05T18:06:33.634Z,42.92
2022-08-05T18:09:03.766Z,43.51
2022-08-05T18:11:33.014Z,48.21
2022-08-05T18:14:13.483Z,53.69
2022-08-05T18:16:46.786Z,55.22
2022-08-05T18:19:22.689Z,56.65
2022-08-05T18:22:06.978Z,59.83
2022-08-05T18:24:37.669Z,64.83
2022-08-05T18:27:18.176Z,71.56
2022-08-05T18:29:53.566Z,77.49
2022-08-05T18:32:27.820Z,83.39
2022-08-05T18:34:56.309Z,86.66
2022-08-05T18:37:33.346Z,91.49
2022-08-05T18:41:50.715Z,93.56
2022-08-05T18:42:50.380Z,94.94
2022-08-05T18:45:19.898Z,97.31
2022-08-05T18:47:52.880Z,97.79
2022-08-05T18:50:46.486Z,100.00
2022-08-05T18:53:20.499Z,100.00
2022-08-05T18:55:52.500Z,100.00
2022-08-05T18:58:27.252Z,100.00
2022-08-05T19:00:57.021Z,100.00
2022-08-05T19:03:53.493Z,100.00
2022-08-05T19:06:19.219Z,100.00
2022-08-05T19:08:49.984Z,100.00
2022-08-05T19:11:28.095Z,100.00
2022-08-05T19:14:20.048Z,100.00
2022-08-05T19:16:52.379Z,100.00
2022-08-05T19:19:21.002Z,100.00
2022-08-05T19:21:48.951Z,100.00
2022-08-05T19:24:19.305Z,100.00
2022-08-05T19:27:04.042Z,100.00
2022-08-05T19:29:36.006Z,100.00
2022-08-05T19:32:06.188Z,100.00
2022-08-05T19:34:36.702Z,100.00
2022-08-05T19:37:04.642Z,100.00
2022-08-05T19:39:32.876Z,100.00
2022-08-05T19:42:15.178Z,100.00
2022-08-05T19:44:45.160Z,100.00
2022-08-05T19:47:15.336Z,100.00
2022-08-05T19:49:45.175Z,100.00
2022-08-05T19:52:31.824Z,100.00
2022-08-05T19:55:07.099Z,100.00
2022-08-05T19:58:19.408Z,100.00
2022-08-05T20:00:38.394Z,100.00
2022-08-05T20:03:09.201Z,100.00
2022-08-05T20:05:43.046Z,100.00
2022-08-05T20:08:11.363Z,100.00
2022-08-05T20:10:39.472Z,100.00
2022-08-05T20:13:11.990Z,100.00
2022-08-05T20:15:52.701Z,100.00
2022-08-05T20:18:32.885Z,100.00
2022-08-05T20:21:06.617Z,100.00
2022-08-05T20:23:40.408Z,100.00
2022-08-05T20:26:25.714Z,100.00
2022-08-05T20:28:56.838Z,100.00
2022-08-05T20:31:37.611Z,100.00
2022-08-05T20:34:14.963Z,100.00
2022-08-05T20:36:43.319Z,100.00
2022-08-05T20:39:12.971Z,100.00
2022-08-05T20:41:44.041Z,100.00
2022-08-05T20:44:17.743Z,100.00
2022-08-05T20:46:58.135Z,100.00
2022-08-05T20:49:26.326Z,100.00
2022-08-05T20:51:55.815Z,100.00
2022-08-05T20:54:42.705Z,100.00
2022-08-05T20:57:14.429Z,100.00
2022-08-05T21:00:10.751Z,100.00
2022-08-05T21:02:30.203Z,100.00
2022-08-05T21:04:58.588Z,100.00
2022-08-05T21:07:50.689Z,100.00
2022-08-05T21:10:18.675Z,100.00
2022-08-05T21:12:58.132Z,100.00
2022-08-05T21:15:34.188Z,100.00
2022-08-05T21:18:01.922Z,100.00
2022-08-05T21:20:33.471Z,100.00
2022-08-05T21:23:01.532Z,100.00
2022-08-05T21:25:33.534Z,100.00
2022-08-05T21:28:03.121Z,100.00
2022-08-05T21:30:31.037Z,100.00
2022-08-05T21:32:58.740Z,100.00
2022-08-05T21:35:30.011Z,100.00
2022-08-05T21:38:11.326Z,100.00
2022-08-05T21:40:41.462Z,100.00
2022-08-05T21:43:24.227Z,100.00
2022-08-05T21:45:57.653Z,100.00
2022-08-05T21:48:29.318Z,100.00
2022-08-05T21:51:00.018Z,100.00
2022-08-05T21:53:28.068Z,100.00
2022-08-05T21:56:16.912Z,100.00
2022-08-05T21:58:57.258Z,100.00
2022-08-05T22:01:26.179Z,100.00
2022-08-05T22:03:54.449Z,100.00
2022-08-05T22:06:35.581Z,100.00
2022-08-05T22:09:13.547Z,100.00
2022-08-05T22:11:48.682Z,100.00
2022-08-05T22:14:35.561Z,100.00
2022-08-05T22:17:06.831Z,100.00
2022-08-05T22:20:01.230Z,100.00
2022-08-05T22:22:28.011Z,100.00
2022-08-05T22:25:27.572Z,100.00
2022-08-05T22:28:10.258Z,100.00
2022-08-05T22:30:55.628Z,100.00
2022-08-05T22:33:55.413Z,100.00
2022-08-05T22:36:14.760Z,100.00
2022-08-05T22:38:48.276Z,100.00
2022-08-05T22:42:05.539Z,100.00
2022-08-05T22:44:04.998Z,100.00
2022-08-05T22:46:33.008Z,100.00
2022-08-05T22:49:00.784Z,100.00
2022-08-05T22:52:02.615Z,100.00
2022-08-05T22:54:16.275Z,100.00
2022-08-05T22:56:44.020Z,100.00
2022-08-05T22:59:45.131Z,100.00
2022-08-05T23:02:07.877Z,100.00
2022-08-05T23:04:36.463Z,100.00
2022-08-05T23:07:07.009Z,100.00
2022-08-05T23:09:57.666Z,100.00
2022-08-05T23:12:25.362Z,100.00
2022-08-05T23:14:56.394Z,100.00
2022-08-05T23:17:34.638Z,100.00
2022-08-05T23:20:15.553Z,100.00
2022-08-05T23:22:48.721Z,100.00
2022-08-05T23:25:53.302Z,100.00
2022-08-05T23:28:07.635Z,100.00
2022-08-05T23:30:40.291Z,100.00
2022-08-05T23:33:16.246Z,100.00
2022-08-05T23:35:51.788Z,100.00
2022-08-05T23:38:22.911Z,100.00
2022-08-05T23:40:52.679Z,100.00
2022-08-05T23:43:25.554Z,100.00
2022-08-05T23:46:20.020Z,100.00
2022-08-05T23:49:00.058Z,100.00
2022-08-05T23:51:53.309Z,100.00
2022-08-05T23:54:36.462Z,100.00
2022-08-05T23:57:06.885Z,100.00
